This is the latest recevied weather packets stored in our database for station/object DJ0JJ-11. If no packets are shown the sender has not sent any weather packets the latest 10 day(s).
| Time | Temp. | Humidity | Pressure | Rain* | Wind** | Luminosity | Snow |
|---|---|---|---|---|---|---|---|
| 1777659217 | 22.22° C | 29% | 1022.7 hPa | - | - | - | - |
| 1777658317 | 23.33° C | 26% | 1022.5 hPa | - | - | - | - |
| 1777657416 | 26.67° C | 21% | 1022.6 hPa | - | - | - | - |
| 1777656516 | 25.56° C | 23% | 1022.6 hPa | - | - | - | - |
| 1777655616 | 25.56° C | 23% | 1022.6 hPa | - | - | - | - |
| 1777654716 | 25.56° C | 21% | 1022.6 hPa | - | - | - | - |
| 1777653816 | 25.56° C | 21% | 1022.7 hPa | - | - | - | - |
| 1777652916 | 25° C | 20% | 1022.9 hPa | - | - | - | - |
| 1777652015 | 25.56° C | 21% | 1023 hPa | - | - | - | - |
| 1777651115 | 25° C | 21% | 1023.2 hPa | - | - | - | - |
| 1777650215 | 25° C | 21% | 1023.3 hPa | - | - | - | - |
| 1777649315 | 25° C | 20% | 1023.5 hPa | - | - | - | - |
| 1777648415 | 24.44° C | 18% | 1023.6 hPa | - | - | - | - |
| 1777647514 | 24.44° C | 19% | 1023.7 hPa | - | - | - | - |
| 1777646614 | 24.44° C | 19% | 1023.8 hPa | - | - | - | - |
| 1777645713 | 23.89° C | 20% | 1023.9 hPa | - | - | - | - |
| 1777644813 | 23.89° C | 19% | 1024.2 hPa | - | - | - | - |
| 1777643913 | 23.33° C | 19% | 1024.4 hPa | - | - | - | - |
| 1777643013 | 23.33° C | 21% | 1024.6 hPa | - | - | - | - |
| 1777642113 | 22.78° C | 20% | 1024.7 hPa | - | - | - | - |
| 1777641213 | 22.78° C | 21% | 1024.9 hPa | - | - | - | - |
| 1777640312 | 22.22° C | 20% | 1025.2 hPa | - | - | - | - |
| 1777639412 | 22.22° C | 21% | 1025.2 hPa | - | - | - | - |
| 1777638512 | 21.67° C | 22% | 1025.5 hPa | - | - | - | - |
| 1777637612 | 21.11° C | 21% | 1025.6 hPa | - | - | - | - |
* Rain since midnight (hover to see other rain measurements)
** Current wind speed in m/s (hover to see current wind gust speed)